Time;durP1;ratioP1;P1;durP2;ratioP2;P2;SDS_P1;SDS_P2;PMS_P1;PMS_P2;Temp;Humidity;BMP_temperature;BMP_pressure;BME280_temperature;BME280_humidity;BME280_pressure;Samples;Min_cycle;Max_cycle;Signal;HPM_P1;HPM_P2
2021/06/23 05:42:37;;;;;;;15.05;13.48;;;18.60;99.40;;;;;;4997820;28;20403;-94
2021/06/23 05:45:04;;;;;;;15.00;13.55;;;18.70;99.90;;;;;;4993028;28;20214;-94
2021/06/23 05:47:31;;;;;;;14.90;13.10;;;18.60;99.70;;;;;;4993055;28;20450;-93
2021/06/23 05:49:58;;;;;;;13.60;12.40;;;18.80;99.80;;;;;;4989640;28;20571;-91
2021/06/23 05:52:25;;;;;;;14.80;13.18;;;18.80;99.50;;;;;;4992450;28;20210;-93
2021/06/23 05:54:52;;;;;;;15.65;12.82;;;18.90;99.80;;;;;;4972766;28;20232;-93
2021/06/23 05:57:21;;;;;;;13.82;12.50;;;18.90;99.70;;;;;;4969440;28;20204;-91
2021/06/23 05:59:47;;;;;;;13.65;12.25;;;18.90;99.60;;;;;;4965739;28;20617;-93
2021/06/23 06:02:14;;;;;;;14.15;12.85;;;19.00;99.20;;;;;;4984466;28;20201;-94
2021/06/23 06:04:41;;;;;;;14.90;12.27;;;19.10;98.60;;;;;;4987429;28;20216;-95
2021/06/23 06:07:08;;;;;;;14.85;13.35;;;19.10;98.60;;;;;;4983474;28;20550;-95
2021/06/23 06:09:35;;;;;;;13.88;12.40;;;19.00;98.70;;;;;;4975806;28;20315;-95
2021/06/23 06:12:02;;;;;;;13.80;12.60;;;18.90;98.90;;;;;;4971013;28;20263;-94
2021/06/23 06:14:31;;;;;;;13.02;11.75;;;18.90;99.10;;;;;;4975384;28;20244;-94
2021/06/23 06:16:59;;;;;;;15.88;12.93;;;18.90;99.30;;;;;;4982050;28;20263;-94
2021/06/23 06:19:26;;;;;;;13.45;12.20;;;18.90;98.70;;;;;;4974286;28;20703;-94
2021/06/23 06:21:55;;;;;;;15.07;13.57;;;18.90;99.00;;;;;;4977510;28;20208;-94
2021/06/23 06:24:22;;;;;;;14.68;13.23;;;18.90;99.10;;;;;;4975735;28;20231;-93
2021/06/23 06:26:51;;;;;;;14.32;12.90;;;19.00;99.00;;;;;;4977210;28;20635;-94
2021/06/23 06:29:26;;;;;;;14.40;12.93;;;19.00;99.20;;;;;;4975864;28;20323;-94
2021/06/23 06:41:12;;;;;;;13.55;12.25;;;19.50;98.00;;;;;;5016045;28;20701;-94
2021/06/23 06:43:39;;;;;;;13.65;12.27;;;19.60;97.30;;;;;;5025974;28;20697;-94
2021/06/23 06:46:06;;;;;;;12.10;10.98;;;19.70;97.10;;;;;;5025331;28;20214;-94
2021/06/23 06:51:14;;;;;;;12.32;11.13;;;20.10;96.40;;;;;;5017105;28;20200;-93
2021/06/23 06:53:43;;;;;;;12.35;11.20;;;20.30;94.80;;;;;;5019880;28;20258;-90
2021/06/23 06:56:11;;;;;;;12.57;11.45;;;20.60;94.70;;;;;;5007996;28;20673;-91
2021/06/23 07:01:19;;;;;;;10.63;9.52;;;20.80;91.90;;;;;;4982829;28;20214;-92
2021/06/23 07:03:45;;;;;;;12.10;11.00;;;21.30;91.60;;;;;;5007383;28;20239;-92
2021/06/23 07:06:12;;;;;;;11.35;10.25;;;21.40;90.40;;;;;;5016141;28;20211;-92
2021/06/23 07:08:39;;;;;;;11.20;9.98;;;21.60;89.70;;;;;;5005981;28;20706;-93
2021/06/23 07:14:27;;;;;;;10.25;9.30;;;22.40;87.80;;;;;;4998799;28;20232;-93
2021/06/23 07:16:53;;;;;;;9.50;8.45;;;23.80;72.50;;;;;;5007563;28;20200;-87
2021/06/23 07:19:22;;;;;;;8.73;7.82;;;26.10;55.60;;;;;;5005631;28;20794;-91
2021/06/23 07:21:49;;;;;;;7.85;7.10;;;28.00;46.10;;;;;;5010395;28;20360;-91
2021/06/23 07:24:18;;;;;;;8.52;7.72;;;28.50;42.40;;;;;;5013688;28;20223;-91
2021/06/23 07:26:58;;;;;;;7.15;6.53;;;27.50;42.10;;;;;;5014154;28;20210;-92
2021/06/23 07:29:26;;;;;;;7.93;7.13;;;26.70;49.10;;;;;;5012572;28;20269;-92
2021/06/23 07:39:57;;;;;;;8.10;7.10;;;23.90;59.40;;;;;;5019706;28;20206;-91
2021/06/23 07:42:25;;;;;;;7.32;6.57;;;23.70;72.70;;;;;;5018513;28;20293;-93
2021/06/23 07:48:56;;;;;;;5.72;4.63;;;23.90;72.50;;;;;;5046214;28;20231;-93
2021/06/23 08:01:15;;;;;;;6.72;5.68;;;23.80;60.40;;;;;;5016266;28;20214;-93
2021/06/23 08:11:27;;;;;;;6.20;5.53;;;25.00;60.60;;;;;;4952862;28;20229;-90
2021/06/23 08:13:55;;;;;;;4.35;4.05;;;24.50;55.40;;;;;;5005121;28;20245;-91
2021/06/23 08:16:23;;;;;;;5.13;4.45;;;25.20;55.90;;;;;;5018820;28;20206;-90
2021/06/23 08:18:50;;;;;;;5.25;4.80;;;26.10;49.90;;;;;;5021630;28;20230;-90
2021/06/23 08:24:01;;;;;;;4.93;4.50;;;28.20;41.10;;;;;;5000976;28;20561;-92
2021/06/23 08:26:29;;;;;;;4.97;4.57;;;30.00;34.50;;;;;;5012418;28;20203;-90
2021/06/23 08:28:56;;;;;;;5.57;4.50;;;30.90;29.10;;;;;;5001676;28;20223;-88
2021/06/23 08:31:24;;;;;;;5.65;4.93;;;32.40;27.90;;;;;;5006036;28;20207;-89
2021/06/23 08:33:53;;;;;;;4.57;4.18;;;33.10;25.40;;;;;;4997169;28;20235;-91
2021/06/23 08:36:20;;;;;;;5.65;5.15;;;35.10;22.90;;;;;;5010228;28;20234;-90
2021/06/23 08:38:47;;;;;;;6.32;4.70;;;34.90;19.20;;;;;;5009688;28;20233;-90
2021/06/23 08:41:13;;;;;;;4.70;4.28;;;35.10;19.10;;;;;;5012567;28;20304;-90
2021/06/23 08:43:41;;;;;;;5.03;4.47;;;36.10;19.60;;;;;;5004972;28;20310;-90
2021/06/23 08:46:08;;;;;;;4.57;4.18;;;36.20;19.20;;;;;;5002420;28;20638;-90
2021/06/23 08:48:38;;;;;;;4.93;4.40;;;36.40;17.30;;;;;;5009627;28;20237;-90
2021/06/23 08:51:07;;;;;;;4.78;4.35;;;35.00;19.10;;;;;;5008841;28;20205;-92
2021/06/23 08:53:44;;;;;;;4.35;4.05;;;34.80;20.70;;;;;;5004676;28;20246;-92
2021/06/23 08:56:31;;;;;;;4.47;3.95;;;35.10;19.10;;;;;;5002201;28;20238;-92
2021/06/23 08:58:58;;;;;;;4.30;4.00;;;35.00;19.10;;;;;;5015120;28;20238;-92
2021/06/23 09:01:37;;;;;;;3.72;3.42;;;35.20;19.20;;;;;;5007818;28;20204;-91
2021/06/23 09:04:08;;;;;;;3.88;3.58;;;35.60;19.40;;;;;;5005877;28;20316;-88
2021/06/23 09:06:44;;;;;;;4.93;4.53;;;36.50;18.60;;;;;;5001350;28;20199;-90
2021/06/23 09:09:22;;;;;;;5.43;5.03;;;36.60;16.80;;;;;;4999772;28;20227;-90
2021/06/23 09:11:50;;;;;;;4.28;3.90;;;35.70;17.50;;;;;;5003014;28;20630;-90
2021/06/23 09:14:19;;;;;;;6.40;4.70;;;35.20;19.20;;;;;;5000895;28;20230;-91
2021/06/23 09:17:08;;;;;;;5.80;4.93;;;34.80;19.00;;;;;;4999501;28;20208;-90
2021/06/23 09:19:38;;;;;;;5.35;4.95;;;32.80;22.50;;;;;;5002138;28;21003;-88
2021/06/23 09:22:06;;;;;;;4.53;4.13;;;32.40;24.50;;;;;;5003620;28;20664;-90
2021/06/23 09:24:38;;;;;;;5.57;5.15;;;33.40;23.60;;;;;;5000385;28;20239;-90
2021/06/23 09:27:19;;;;;;;4.90;4.50;;;35.10;19.10;;;;;;4997056;28;20207;-89
2021/06/23 09:29:46;;;;;;;5.57;5.13;;;36.90;17.20;;;;;;5005360;28;20222;-90
2021/06/23 09:32:13;;;;;;;6.63;5.53;;;35.60;18.70;;;;;;4996505;28;20207;-89
2021/06/23 09:34:45;;;;;;;4.80;4.47;;;34.70;18.90;;;;;;5002519;28;20230;-90
2021/06/23 09:37:26;;;;;;;4.53;4.22;;;34.00;21.70;;;;;;5000657;28;20674;-90
2021/06/23 09:40:12;;;;;;;4.60;4.20;;;34.20;21.90;;;;;;4999260;28;20226;-91
2021/06/23 09:42:40;;;;;;;5.63;5.20;;;35.50;17.60;;;;;;5006279;28;20758;-90
2021/06/23 09:45:10;;;;;;;4.70;4.40;;;35.50;19.30;;;;;;5008707;28;20210;-89
2021/06/23 09:47:38;;;;;;;5.40;4.90;;;35.80;19.50;;;;;;5011839;28;20203;-90
2021/06/23 09:50:07;;;;;;;5.38;4.97;;;35.70;19.40;;;;;;5007389;28;20313;-89
2021/06/23 09:52:35;;;;;;;5.50;5.10;;;36.20;17.70;;;;;;4999368;28;20199;-89
2021/06/23 09:55:04;;;;;;;5.07;4.78;;;36.20;16.60;;;;;;5003369;28;20280;-90
2021/06/23 09:57:31;;;;;;;4.43;4.13;;;36.40;16.60;;;;;;5002322;28;20217;-89
2021/06/23 10:00:08;;;;;;;6.22;4.95;;;36.80;15.50;;;;;;5009684;28;20241;-89
2021/06/23 10:02:36;;;;;;;5.53;5.13;;;35.10;18.00;;;;;;4997118;28;20195;-90
2021/06/23 10:05:28;;;;;;;5.97;5.47;;;35.00;19.10;;;;;;5007654;28;20261;-90
2021/06/23 10:07:55;;;;;;;4.57;4.25;;;34.20;18.70;;;;;;5002940;28;20286;-90
2021/06/23 10:10:25;;;;;;;5.13;4.70;;;36.10;19.40;;;;;;4998399;28;20223;-90
2021/06/23 10:12:53;;;;;;;5.97;5.53;;;37.60;17.40;;;;;;4999991;28;20591;-90
2021/06/23 10:15:21;;;;;;;5.80;5.30;;;36.60;15.80;;;;;;5008772;28;20218;-90
2021/06/23 10:17:48;;;;;;;5.90;5.50;;;37.20;15.30;;;;;;5007331;28;20210;-90
2021/06/23 10:20:17;;;;;;;5.32;4.55;;;36.80;15.40;;;;;;5017500;28;20203;-90
2021/06/23 10:22:46;;;;;;;4.60;4.30;;;35.40;18.40;;;;;;5010138;28;20205;-90
2021/06/23 10:25:15;;;;;;;4.93;4.45;;;34.60;19.10;;;;;;5001288;28;20203;-90
2021/06/23 10:27:44;;;;;;;5.30;4.90;;;34.50;18.80;;;;;;4997858;28;20208;-90
2021/06/23 10:30:12;;;;;;;5.57;5.07;;;33.40;20.20;;;;;;4996566;28;20293;-90
2021/06/23 10:32:39;;;;;;;5.63;5.10;;;32.20;23.80;;;;;;4998114;28;20218;-90
2021/06/23 10:35:07;;;;;;;4.20;3.90;;;31.30;24.50;;;;;;5003432;28;20230;-90
2021/06/23 10:37:36;;;;;;;4.32;3.97;;;31.00;25.80;;;;;;5006314;28;20218;-89
2021/06/23 10:40:07;;;;;;;4.88;3.58;;;30.30;28.70;;;;;;5007867;28;20202;-90
2021/06/23 10:42:34;;;;;;;4.60;4.20;;;29.60;30.20;;;;;;5009483;28;20655;-90
2021/06/23 10:45:02;;;;;;;6.55;4.05;;;29.00;30.60;;;;;;5007981;28;20207;-90
2021/06/23 10:47:30;;;;;;;4.40;4.10;;;29.40;31.50;;;;;;5011567;28;20210;-90
2021/06/23 10:49:57;;;;;;;5.00;4.50;;;29.60;29.90;;;;;;5009570;28;20246;-89
2021/06/23 10:52:35;;;;;;;6.15;3.83;;;30.20;27.80;;;;;;5003415;28;20207;-90
2021/06/23 10:55:04;;;;;;;5.30;4.40;;;29.70;29.00;;;;;;5009121;28;20232;-89
2021/06/23 10:57:36;;;;;;;4.95;4.55;;;29.00;31.50;;;;;;5003092;28;20214;-91
2021/06/23 11:00:31;;;;;;;4.97;4.40;;;28.80;31.80;;;;;;5009158;28;20726;-89
2021/06/23 11:03:07;;;;;;;7.78;5.47;;;28.60;32.70;;;;;;5006818;28;20288;-90
2021/06/23 11:05:36;;;;;;;5.05;4.63;;;28.10;33.30;;;;;;5008428;28;20211;-90
2021/06/23 11:08:22;;;;;;;5.20;4.72;;;27.70;40.10;;;;;;5007037;28;20226;-90
2021/06/23 11:10:49;;;;;;;8.13;5.60;;;27.90;35.10;;;;;;5008633;28;20198;-89
2021/06/23 11:13:21;;;;;;;5.40;4.90;;;27.80;33.50;;;;;;5003151;28;20305;-90
2021/06/23 11:15:51;;;;;;;6.63;4.65;;;27.90;38.00;;;;;;5011438;28;20230;-90
2021/06/23 11:21:14;;;;;;;7.55;4.50;;;28.10;32.40;;;;;;5014745;28;20206;-90
2021/06/23 11:23:59;;;;;;;4.55;4.15;;;27.40;35.00;;;;;;5005594;28;20230;-90
2021/06/23 11:26:52;;;;;;;4.13;3.75;;;27.60;33.70;;;;;;5006120;28;20208;-90
2021/06/23 11:29:34;;;;;;;5.28;4.45;;;27.80;36.10;;;;;;5007176;28;20301;-90
2021/06/23 11:32:05;;;;;;;6.82;4.70;;;27.90;35.40;;;;;;5009400;28;20222;-90
2021/06/23 11:37:37;;;;;;;6.18;4.90;;;27.80;38.00;;;;;;5008802;28;20717;-89
2021/06/23 11:40:13;;;;;;;4.88;4.35;;;28.20;34.20;;;;;;5009522;28;20349;-90
2021/06/23 11:42:40;;;;;;;4.60;4.20;;;28.40;35.40;;;;;;5003461;28;20214;-88
2021/06/23 11:45:10;;;;;;;4.22;3.78;;;28.40;32.50;;;;;;5006342;28;20688;-89
2021/06/23 11:47:38;;;;;;;4.63;3.85;;;28.30;31.70;;;;;;5010149;28;20651;-89
2021/06/23 11:50:06;;;;;;;3.67;3.38;;;28.20;31.10;;;;;;5006942;28;20575;-90
2021/06/23 11:52:33;;;;;;;4.88;3.65;;;27.80;34.80;;;;;;5009380;28;20211;-89
2021/06/23 11:55:00;;;;;;;3.63;3.25;;;27.30;34.10;;;;;;5004580;28;20230;-89
2021/06/23 11:57:27;;;;;;;5.60;4.30;;;27.00;34.90;;;;;;5007025;28;20241;-89
2021/06/23 11:59:54;;;;;;;4.07;3.72;;;26.90;36.10;;;;;;5009310;28;20231;-89
2021/06/23 12:05:03;;;;;;;4.40;4.00;;;26.90;37.40;;;;;;5007733;28;20223;-88
2021/06/23 12:07:30;;;;;;;4.18;3.80;;;26.60;37.20;;;;;;5006056;28;20214;-88
2021/06/23 12:09:56;;;;;;;6.72;4.28;;;26.50;37.20;;;;;;5007182;28;20214;-88
2021/06/23 12:12:23;;;;;;;4.68;4.22;;;26.30;37.00;;;;;;5008023;28;20240;-87
2021/06/23 12:14:50;;;;;;;4.68;4.03;;;25.90;39.00;;;;;;5009768;28;20295;-86
2021/06/23 12:17:19;;;;;;;4.95;3.85;;;26.20;37.00;;;;;;5012078;28;20246;-85
2021/06/23 12:19:47;;;;;;;4.13;3.15;;;26.60;38.90;;;;;;5012181;28;20227;-86
2021/06/23 12:22:14;;;;;;;5.22;3.20;;;26.90;37.40;;;;;;5020731;28;20274;-86
2021/06/23 12:24:42;;;;;;;6.22;3.17;;;27.20;34.60;;;;;;5004019;28;20223;-87
2021/06/23 12:27:08;;;;;;;3.22;2.80;;;27.20;35.80;;;;;;5020649;28;20245;-90
2021/06/23 12:29:37;;;;;;;4.40;3.35;;;27.40;32.70;;;;;;5009030;28;20231;-91
2021/06/23 12:32:07;;;;;;;3.83;3.22;;;27.70;32.10;;;;;;5024231;28;20225;-91
2021/06/23 12:34:34;;;;;;;3.35;3.05;;;27.80;31.90;;;;;;5008538;28;20246;-91
2021/06/23 12:39:43;;;;;;;3.75;3.30;;;27.90;32.20;;;;;;5000642;28;20214;-89
2021/06/23 12:42:10;;;;;;;3.90;3.60;;;27.00;33.50;;;;;;5007261;28;20199;-87
2021/06/23 12:44:39;;;;;;;5.13;3.50;;;26.70;35.40;;;;;;5007688;28;20228;-88
2021/06/23 12:47:06;;;;;;;3.58;3.28;;;27.20;34.10;;;;;;5010027;28;20611;-88
2021/06/23 12:49:41;;;;;;;5.53;3.33;;;27.40;34.10;;;;;;4997946;28;20227;-89
2021/06/23 12:52:10;;;;;;;3.88;3.53;;;27.40;33.50;;;;;;5010437;28;20203;-88
2021/06/23 12:54:37;;;;;;;3.70;3.40;;;27.50;33.20;;;;;;5003020;28;20239;-89
2021/06/23 12:57:05;;;;;;;5.47;3.67;;;27.80;33.10;;;;;;5007900;28;20231;-89
2021/06/23 12:59:32;;;;;;;6.55;3.38;;;28.10;31.60;;;;;;5006980;28;20219;-91
2021/06/23 13:02:09;;;;;;;5.57;3.75;;;28.30;32.20;;;;;;5009204;28;20297;-90
2021/06/23 13:04:36;;;;;;;4.57;3.55;;;27.80;33.90;;;;;;5014532;28;20386;-89
2021/06/23 13:07:27;;;;;;;5.30;4.15;;;27.40;34.30;;;;;;5005471;28;20654;-88
2021/06/23 13:10:54;;;;;;;5.70;4.35;;;27.30;34.70;;;;;;5006069;28;20234;-89
2021/06/23 13:13:22;;;;;;;4.57;4.18;;;27.30;34.50;;;;;;4965639;28;20696;-89
2021/06/23 13:15:57;;;;;;;4.30;3.90;;;27.90;35.20;;;;;;4979483;28;20206;-88
2021/06/23 13:18:42;;;;;;;4.45;4.03;;;28.20;31.60;;;;;;5013373;28;21941;-89
2021/06/23 13:21:13;;;;;;;4.78;4.38;;;28.30;31.60;;;;;;5004132;28;20969;-88
2021/06/23 13:23:40;;;;;;;5.78;3.85;;;27.40;34.10;;;;;;5013204;28;20222;-89
2021/06/23 13:26:07;;;;;;;4.40;4.00;;;27.60;33.20;;;;;;5016473;28;20209;-89
2021/06/23 13:28:35;;;;;;;6.53;4.80;;;27.60;35.60;;;;;;5016752;28;20724;-89
2021/06/23 13:31:02;;;;;;;7.45;4.70;;;27.40;35.90;;;;;;5018640;28;20242;-88
2021/06/23 13:33:29;;;;;;;5.93;4.45;;;27.20;36.70;;;;;;5007477;28;20251;-88
2021/06/23 13:35:56;;;;;;;4.93;4.38;;;27.30;35.30;;;;;;5014199;28;20200;-89
2021/06/23 13:38:25;;;;;;;4.78;4.20;;;27.40;36.10;;;;;;5011268;28;20656;-88
2021/06/23 13:40:52;;;;;;;5.82;4.60;;;27.30;37.50;;;;;;5013045;28;20196;-88
2021/06/23 13:43:28;;;;;;;5.78;4.93;;;27.20;37.60;;;;;;5016692;28;20234;-88
2021/06/23 13:45:57;;;;;;;5.85;5.22;;;27.20;37.60;;;;;;5013947;28;20206;-90
2021/06/23 13:48:27;;;;;;;6.45;5.15;;;27.40;37.70;;;;;;5013549;28;20322;-88
2021/06/23 13:50:54;;;;;;;5.28;4.78;;;27.50;36.90;;;;;;5010870;28;20205;-89
2021/06/23 13:53:22;;;;;;;5.40;4.90;;;27.60;34.90;;;;;;5012201;28;20230;-90
2021/06/23 13:55:51;;;;;;;4.68;4.28;;;27.50;34.20;;;;;;5008521;28;20192;-89
2021/06/23 13:58:18;;;;;;;6.32;5.20;;;27.20;35.70;;;;;;5007981;28;20215;-88
2021/06/23 14:00:47;;;;;;;6.28;5.07;;;26.70;37.40;;;;;;5012094;28;20203;-86
2021/06/23 14:06:01;;;;;;;6.18;4.30;;;26.30;39.30;;;;;;5009745;28;20577;-90
2021/06/23 14:08:36;;;;;;;5.70;4.50;;;26.60;37.90;;;;;;5014684;28;20276;-90
2021/06/23 14:11:03;;;;;;;7.57;4.82;;;26.90;37.50;;;;;;5018285;28;20739;-90
2021/06/23 14:13:30;;;;;;;5.47;4.97;;;27.10;37.50;;;;;;5023566;28;20239;-90
2021/06/23 14:18:52;;;;;;;4.85;4.38;;;26.80;37.40;;;;;;5009579;28;20242;-88
2021/06/23 14:47:10;;;;;;;5.00;4.50;;;26.70;37.30;;;;;;5038939;28;20292;-92
2021/06/23 14:50:37;;;;;;;5.28;4.80;;;26.70;38.30;;;;;;5040361;28;20233;-93
2021/06/23 14:55:40;;;;;;;6.82;4.88;;;26.60;39.70;;;;;;5125965;22;20238;-91
2021/06/23 15:39:07;;;;;;;5.32;4.20;;;26.40;42.20;;;;;;5040354;28;20202;-91
2021/06/23 16:16:12;;;;;;;4.25;3.88;;;24.70;52.30;;;;;;5041834;28;20190;-93
2021/06/23 16:52:03;;;;;;;6.13;3.75;;;24.40;54.40;;;;;;5024311;28;20162;-91
2021/06/23 16:57:52;;;;;;;5.95;4.72;;;24.20;55.50;;;;;;5025783;28;20691;-93
2021/06/23 17:27:09;;;;;;;5.10;4.35;;;23.60;59.20;;;;;;5026974;28;20609;-92
2021/06/23 17:29:37;;;;;;;5.10;4.03;;;23.60;59.20;;;;;;5037932;28;20260;-91
2021/06/23 17:32:05;;;;;;;5.38;4.40;;;23.60;59.20;;;;;;5029594;28;20298;-91
2021/06/23 17:34:33;;;;;;;4.60;4.20;;;23.60;59.20;;;;;;5029040;28;20230;-90
2021/06/23 17:36:59;;;;;;;5.38;4.70;;;23.60;59.20;;;;;;5030811;28;20571;-92
2021/06/23 17:39:31;;;;;;;7.35;4.70;;;23.50;60.00;;;;;;5029494;28;20227;-92
2021/06/23 17:42:00;;;;;;;9.32;4.35;;;23.40;61.60;;;;;;5030807;28;20226;-91
2021/06/23 17:47:12;;;;;;;6.07;4.80;;;23.40;63.90;;;;;;5035259;28;20207;-92
2021/06/23 17:49:45;;;;;;;5.85;4.20;;;23.30;64.30;;;;;;5037523;28;20229;-94
2021/06/23 17:52:12;;;;;;;4.95;4.05;;;23.30;65.20;;;;;;5035977;28;20202;-94
2021/06/23 17:54:41;;;;;;;5.65;4.20;;;23.20;64.80;;;;;;5019680;28;20238;-93
2021/06/23 17:57:08;;;;;;;4.60;4.20;;;23.20;64.60;;;;;;5010640;28;20239;-92
2021/06/23 17:59:44;;;;;;;4.50;4.10;;;23.10;66.30;;;;;;4980771;28;20247;-92
2021/06/23 18:02:13;;;;;;;5.10;4.40;;;23.10;66.80;;;;;;5021840;28;20191;-91
2021/06/23 18:12:56;;;;;;;8.55;6.45;;;21.80;91.00;;;;;;5005028;28;20267;-92
2021/06/23 18:29:33;;;;;;;11.20;9.40;;;20.40;99.90;;;;;;5004160;28;20202;-93
2021/06/23 18:32:00;;;;;;;11.52;9.60;;;20.30;99.90;;;;;;5013983;28;20215;-93
2021/06/23 18:34:31;;;;;;;9.65;8.73;;;20.30;99.90;;;;;;5010683;28;20591;-94
2021/06/23 18:36:58;;;;;;;13.35;10.15;;;20.20;99.90;;;;;;4998700;28;20634;-93
2021/06/23 18:39:25;;;;;;;11.23;9.65;;;20.20;99.90;;;;;;5006942;28;20235;-94
2021/06/23 18:44:58;;;;;;;13.20;9.90;;;20.30;99.90;;;;;;5000944;28;20291;-93
2021/06/23 18:47:27;;;;;;;19.20;11.60;;;20.20;99.90;;;;;;5007608;28;20203;-93
2021/06/23 18:49:55;;;;;;;19.45;13.45;;;20.20;99.90;;;;;;5001244;28;20219;-93
2021/06/23 18:52:23;;;;;;;13.65;10.48;;;20.10;99.90;;;;;;5015474;28;20195;-94
2021/06/23 18:54:51;;;;;;;12.50;10.07;;;20.00;99.90;;;;;;5011065;28;20224;-93
2021/06/23 19:00:27;;;;;;;11.23;9.98;;;20.00;99.90;;;;;;4985728;28;20628;-93
2021/06/23 19:02:54;;;;;;;12.15;10.45;;;19.90;99.90;;;;;;4999011;28;20243;-93
2021/06/23 19:05:24;;;;;;;11.30;10.20;;;20.00;99.90;;;;;;5001543;28;20218;-93
2021/06/23 19:07:51;;;;;;;11.35;10.18;;;20.10;99.90;;;;;;4999725;28;20311;-93
2021/06/23 19:10:18;;;;;;;10.70;9.60;;;20.10;99.90;;;;;;5007952;28;20200;-92
2021/06/23 19:19:05;;;;;;;4.75;4.35;;;19.40;99.40;;;;;;5004706;28;20269;-93
2021/06/23 19:21:32;;;;;;;6.10;4.97;;;18.40;95.40;;;;;;5017056;28;20571;-93
2021/06/23 19:26:40;;;;;;;2.70;2.35;;;17.50;98.30;;;;;;5007951;28;20199;-92
2021/06/23 19:31:53;;;;;;;3.22;2.95;;;17.00;99.30;;;;;;5009431;28;20230;-92
2021/06/23 19:34:19;;;;;;;3.63;2.00;;;16.90;99.90;;;;;;5016920;28;20211;-92
2021/06/23 19:36:46;;;;;;;2.30;1.60;;;16.70;99.90;;;;;;5005447;28;20204;-91
2021/06/23 19:39:15;;;;;;;1.88;1.50;;;16.50;99.90;;;;;;5016306;28;20230;-92
2021/06/23 19:41:42;;;;;;;3.65;1.30;;;16.30;99.90;;;;;;5010500;28;20210;-92
2021/06/23 19:46:51;;;;;;;2.33;1.42;;;16.40;99.90;;;;;;4984729;28;20675;-91
2021/06/23 19:49:18;;;;;;;2.67;2.05;;;16.40;99.90;;;;;;5008969;28;20603;-91
2021/06/23 19:51:45;;;;;;;1.40;1.30;;;16.40;99.90;;;;;;5019535;28;20205;-92
2021/06/23 19:56:54;;;;;;;1.75;1.65;;;16.50;99.90;;;;;;5015203;28;20207;-92
2021/06/23 20:02:18;;;;;;;2.15;1.80;;;16.60;99.90;;;;;;5012949;28;20212;-92
2021/06/23 20:05:09;;;;;;;1.90;1.75;;;16.60;99.90;;;;;;5021410;28;20330;-91
2021/06/23 20:07:46;;;;;;;1.73;1.63;;;16.50;99.90;;;;;;5007725;28;20196;-92
2021/06/23 20:10:15;;;;;;;1.92;1.58;;;16.40;99.90;;;;;;5017026;28;20199;-91
2021/06/23 20:13:00;;;;;;;2.47;1.95;;;16.30;99.90;;;;;;5006744;28;20226;-92
2021/06/23 20:18:09;;;;;;;3.10;2.78;;;16.10;99.90;;;;;;4998514;28;20230;-92
2021/06/23 20:20:38;;;;;;;3.45;3.15;;;16.00;99.90;;;;;;5015048;28;20203;-92
2021/06/23 20:23:05;;;;;;;3.75;2.40;;;16.00;99.90;;;;;;5012108;28;20246;-92
2021/06/23 20:25:34;;;;;;;4.85;2.42;;;16.00;99.90;;;;;;5012093;28;20215;-92
2021/06/23 20:28:20;;;;;;;3.55;2.60;;;15.90;99.90;;;;;;4988123;28;20491;-92
2021/06/23 20:33:30;;;;;;;2.80;2.50;;;15.90;99.90;;;;;;5002900;28;20694;-93
2021/06/23 20:35:57;;;;;;;3.50;2.50;;;15.90;99.90;;;;;;5010949;28;20267;-92
2021/06/23 20:38:25;;;;;;;5.90;2.97;;;16.00;99.90;;;;;;5013588;28;20234;-92
2021/06/23 20:49:03;;;;;;;5.88;2.80;;;16.10;99.90;;;;;;5023989;28;20269;-92
2021/06/23 20:51:30;;;;;;;6.25;3.30;;;16.00;99.90;;;;;;5024114;28;20517;-92
2021/06/23 20:53:57;;;;;;;4.35;2.80;;;16.00;99.90;;;;;;5024486;28;20319;-92
2021/06/23 20:56:24;;;;;;;6.82;2.88;;;16.10;99.90;;;;;;5024705;28;20271;-91
2021/06/23 20:58:52;;;;;;;4.25;2.92;;;16.20;99.90;;;;;;5019767;28;20234;-92
2021/06/23 21:04:12;;;;;;;2.97;2.67;;;16.20;99.90;;;;;;5028904;28;20230;-92
2021/06/23 21:06:41;;;;;;;3.75;2.70;;;16.30;99.90;;;;;;5020430;28;20208;-92
2021/06/23 21:09:08;;;;;;;4.45;2.95;;;16.30;99.90;;;;;;5018418;28;20255;-91
2021/06/23 21:11:41;;;;;;;3.08;2.78;;;16.30;99.90;;;;;;5027889;28;20281;-92
2021/06/23 21:14:19;;;;;;;3.65;2.63;;;16.40;99.90;;;;;;5026614;28;20233;-92
2021/06/23 21:19:31;;;;;;;3.13;2.75;;;16.40;99.90;;;;;;4996921;28;20246;-92
2021/06/23 21:25:10;;;;;;;5.10;2.97;;;16.30;99.90;;;;;;5007366;28;20676;-92
2021/06/23 21:30:21;;;;;;;4.03;2.92;;;16.10;99.90;;;;;;5018790;28;20207;-92
2021/06/23 21:41:47;;;;;;;3.78;3.15;;;16.20;99.90;;;;;;5008872;28;20681;-92
2021/06/23 21:44:15;;;;;;;4.78;3.40;;;16.20;99.90;;;;;;5024812;28;20585;-92
2021/06/23 21:52:10;;;;;;;3.85;3.42;;;16.20;99.90;;;;;;5017127;28;20207;-92
2021/06/23 21:55:06;;;;;;;4.13;3.60;;;16.30;99.90;;;;;;5007965;28;20714;-91
2021/06/23 22:00:16;;;;;;;4.00;3.55;;;16.30;99.90;;;;;;4990382;28;20290;-92
2021/06/23 22:14:17;;;;;;;3.72;3.28;;;16.60;99.90;;;;;;5009438;28;20212;-92
2021/06/23 22:17:04;;;;;;;4.00;2.90;;;16.70;99.90;;;;;;4978005;28;20211;-92
2021/06/23 22:19:36;;;;;;;4.05;2.90;;;16.80;99.90;;;;;;5019677;28;20230;-92
2021/06/23 22:24:52;;;;;;;3.00;2.70;;;16.70;99.90;;;;;;5014853;28;20219;-92
2021/06/23 22:30:02;;;;;;;3.28;2.60;;;16.70;99.90;;;;;;5009707;28;20233;-92
2021/06/23 22:32:47;;;;;;;3.30;3.00;;;16.80;99.90;;;;;;5020660;28;20195;-93
2021/06/23 22:35:14;;;;;;;4.05;3.00;;;16.80;99.90;;;;;;5022823;28;20191;-92
2021/06/23 22:37:43;;;;;;;3.05;2.72;;;16.90;99.90;;;;;;5021703;28;20207;-92
2021/06/23 22:40:15;;;;;;;3.58;2.70;;;17.00;99.90;;;;;;5020078;28;20553;-92
2021/06/23 22:43:06;;;;;;;4.72;2.70;;;16.90;99.90;;;;;;5006588;28;20713;-92
2021/06/23 22:45:47;;;;;;;5.97;2.67;;;16.90;99.90;;;;;;5019653;28;20219;-92
2021/06/23 22:56:41;;;;;;;3.25;2.80;;;16.60;99.90;;;;;;4980041;28;20216;-93
2021/06/23 22:59:08;;;;;;;3.72;2.90;;;16.60;99.90;;;;;;4979063;28;21059;-93
2021/06/23 23:01:36;;;;;;;2.90;2.60;;;16.60;99.90;;;;;;5015639;28;20210;-93
2021/06/23 23:04:04;;;;;;;3.30;2.50;;;16.70;99.90;;;;;;5019305;28;20636;-93
2021/06/23 23:06:33;;;;;;;4.07;2.60;;;16.80;99.90;;;;;;5020205;28;20623;-93
2021/06/23 23:12:03;;;;;;;5.07;2.15;;;16.90;99.90;;;;;;5005459;28;20658;-93
2021/06/23 23:17:11;;;;;;;2.90;2.30;;;16.90;99.90;;;;;;5010099;28;20229;-93
2021/06/23 23:19:38;;;;;;;3.58;2.55;;;17.00;99.90;;;;;;5019243;28;20243;-93
2021/06/23 23:22:05;;;;;;;2.78;2.30;;;17.10;99.90;;;;;;5020393;28;20192;-93
2021/06/23 23:27:14;;;;;;;2.30;2.10;;;16.90;99.90;;;;;;5015360;28;20218;-93
2021/06/23 23:29:41;;;;;;;3.13;2.33;;;16.90;99.90;;;;;;5027111;28;20691;-92
2021/06/23 23:32:09;;;;;;;4.05;2.17;;;16.80;99.90;;;;;;5020378;28;20206;-92
2021/06/23 23:34:36;;;;;;;3.92;1.90;;;16.60;99.90;;;;;;5019592;28;20219;-92
2021/06/23 23:37:04;;;;;;;3.72;1.90;;;16.50;99.90;;;;;;5016685;28;20201;-92
2021/06/23 23:39:32;;;;;;;5.03;2.00;;;16.50;99.90;;;;;;5014134;28;20227;-93
2021/06/23 23:42:01;;;;;;;3.10;1.92;;;16.30;99.90;;;;;;5012958;28;20205;-92
2021/06/23 23:44:27;;;;;;;2.53;1.60;;;16.20;99.90;;;;;;5013415;28;20250;-93
2021/06/23 23:46:54;;;;;;;3.33;1.60;;;16.20;99.90;;;;;;5013877;28;20203;-93
2021/06/23 23:49:22;;;;;;;2.40;1.70;;;16.30;99.90;;;;;;5013763;28;20230;-93
2021/06/23 23:51:49;;;;;;;3.35;1.50;;;16.30;99.90;;;;;;5014451;28;20195;-92
2021/06/23 23:54:19;;;;;;;2.40;1.52;;;16.20;99.90;;;;;;5063368;23;20221;-92
2021/06/23 23:56:46;;;;;;;2.60;1.40;;;16.20;99.90;;;;;;5039895;28;20194;-91
2021/06/23 23:59:15;;;;;;;4.63;1.50;;;16.20;99.90;;;;;;5036420;28;20221;-92
